createdAt,value
2023-05-21T00:00:38.130Z,12.80
2023-05-21T00:02:05.508Z,13.30
2023-05-21T00:03:14.819Z,14.20
2023-05-21T00:04:21.097Z,14.20
2023-05-21T00:05:27.469Z,14.80
2023-05-21T00:06:35.940Z,14.40
2023-05-21T00:07:45.579Z,13.70
2023-05-21T00:08:51.839Z,15.50
2023-05-21T00:09:57.622Z,18.70
2023-05-21T00:11:03.353Z,14.50
2023-05-21T00:12:10.922Z,15.00
2023-05-21T00:13:17.342Z,14.40
2023-05-21T00:14:23.482Z,16.70
2023-05-21T00:15:29.380Z,15.90
2023-05-21T00:16:35.898Z,15.60
2023-05-21T00:17:43.931Z,15.50
2023-05-21T00:18:50.155Z,13.50
2023-05-21T00:19:57.083Z,14.40
2023-05-21T00:21:06.141Z,16.70
2023-05-21T00:22:14.635Z,17.00
2023-05-21T00:23:21.965Z,13.90
2023-05-21T00:24:28.021Z,16.00
2023-05-21T00:25:34.701Z,15.50
2023-05-21T00:26:42.037Z,16.10
2023-05-21T00:27:48.801Z,17.90
2023-05-21T00:28:54.560Z,15.00
2023-05-21T00:30:01.510Z,14.90
2023-05-21T00:31:07.905Z,14.50
2023-05-21T00:32:14.254Z,15.40
2023-05-21T00:33:22.000Z,13.80
2023-05-21T00:34:27.920Z,16.60
2023-05-21T00:35:35.229Z,16.90
2023-05-21T00:36:47.662Z,15.70
2023-05-21T00:37:54.185Z,14.40
2023-05-21T00:39:00.688Z,15.00
2023-05-21T00:40:11.656Z,13.90
2023-05-21T00:41:19.947Z,16.10
2023-05-21T00:42:27.524Z,14.60
2023-05-21T00:43:33.890Z,16.10
2023-05-21T00:44:40.313Z,19.40
2023-05-21T00:45:48.509Z,15.30
2023-05-21T00:46:55.769Z,16.00
2023-05-21T00:48:02.873Z,15.90
2023-05-21T00:49:09.471Z,15.30
2023-05-21T00:50:17.807Z,15.50
2023-05-21T00:51:24.953Z,15.50
2023-05-21T00:52:31.576Z,15.70
2023-05-21T00:53:38.958Z,17.60
2023-05-21T00:54:45.110Z,15.60
2023-05-21T00:55:52.413Z,14.40
2023-05-21T00:56:59.159Z,17.10
2023-05-21T00:58:06.628Z,16.60
2023-05-21T00:59:13.605Z,16.10
2023-05-21T01:00:20.678Z,16.90
2023-05-21T01:01:27.549Z,18.90
2023-05-21T01:02:35.170Z,17.40
2023-05-21T01:03:42.216Z,16.90
2023-05-21T01:04:48.768Z,19.10
2023-05-21T01:06:00.004Z,16.70
2023-05-21T01:07:12.504Z,22.60
2023-05-21T01:08:21.085Z,15.60
2023-05-21T01:09:27.956Z,14.70
2023-05-21T01:10:34.024Z,16.00
2023-05-21T01:11:45.350Z,17.30
2023-05-21T01:12:52.946Z,15.50
2023-05-21T01:14:04.329Z,16.10
2023-05-21T01:15:14.473Z,13.30
2023-05-21T01:16:21.949Z,16.70
2023-05-21T01:17:31.875Z,13.20
2023-05-21T01:18:44.093Z,12.80
2023-05-21T01:19:53.154Z,14.30
2023-05-21T01:22:09.716Z,14.40
2023-05-21T01:23:16.486Z,14.30
2023-05-21T01:24:23.312Z,14.30
2023-05-21T01:25:29.634Z,16.40
2023-05-21T01:26:39.376Z,15.20
2023-05-21T01:27:46.457Z,17.00
2023-05-21T01:28:55.034Z,15.00
2023-05-21T01:30:03.260Z,16.70
2023-05-21T01:31:19.870Z,13.30
2023-05-21T01:32:33.781Z,13.80
2023-05-21T01:33:47.950Z,16.50
2023-05-21T01:35:03.311Z,14.00
2023-05-21T01:36:16.928Z,14.40
2023-05-21T01:37:30.053Z,16.30
2023-05-21T01:38:43.294Z,14.40
2023-05-21T01:39:57.092Z,12.70
2023-05-21T01:41:08.950Z,17.60
2023-05-21T01:42:17.038Z,14.80
2023-05-21T01:43:27.188Z,12.20
2023-05-21T01:44:36.307Z,12.40
2023-05-21T01:45:45.555Z,12.30
2023-05-21T01:46:55.517Z,13.90
2023-05-21T01:48:06.599Z,12.00
2023-05-21T01:49:18.243Z,13.70
2023-05-21T01:50:26.876Z,13.90
2023-05-21T01:51:35.028Z,11.70
2023-05-21T01:52:48.429Z,14.10
2023-05-21T01:53:55.028Z,15.00
2023-05-21T01:55:02.561Z,13.50
2023-05-21T01:56:11.531Z,12.70
2023-05-21T01:57:18.684Z,15.60
2023-05-21T01:58:24.859Z,17.60
2023-05-21T01:59:31.339Z,13.80
2023-05-21T02:00:40.441Z,11.80
2023-05-21T02:01:47.181Z,13.60
2023-05-21T02:02:56.372Z,12.10
2023-05-21T02:04:09.865Z,11.40
2023-05-21T02:05:17.626Z,15.00
2023-05-21T02:06:24.708Z,14.70
2023-05-21T02:07:34.050Z,15.10
2023-05-21T02:08:40.736Z,11.60
2023-05-21T02:09:46.539Z,14.40
2023-05-21T02:10:53.324Z,13.50
2023-05-21T02:11:59.826Z,14.40
2023-05-21T02:13:06.859Z,12.80
2023-05-21T02:14:14.478Z,14.60
2023-05-21T02:15:22.654Z,15.10
2023-05-21T02:16:32.031Z,13.00
2023-05-21T02:17:38.956Z,13.30
2023-05-21T02:18:46.991Z,11.60
2023-05-21T02:19:56.097Z,13.50
2023-05-21T02:21:02.485Z,14.40
2023-05-21T02:22:11.378Z,15.20
2023-05-21T02:23:17.532Z,17.10
2023-05-21T02:24:24.507Z,11.70
2023-05-21T02:25:30.852Z,17.20
2023-05-21T02:26:37.523Z,15.70
2023-05-21T02:27:44.664Z,15.10
2023-05-21T02:28:53.217Z,17.80
2023-05-21T02:29:59.931Z,11.90
2023-05-21T02:31:06.109Z,13.10
2023-05-21T02:32:12.362Z,13.20
2023-05-21T02:33:20.651Z,15.10
2023-05-21T02:34:31.428Z,13.20
2023-05-21T02:35:37.915Z,15.30
2023-05-21T02:36:44.326Z,13.40
2023-05-21T02:37:50.327Z,14.90
2023-05-21T02:38:57.881Z,15.00
2023-05-21T02:40:07.094Z,15.80
2023-05-21T02:41:13.539Z,14.70
2023-05-21T02:42:19.573Z,14.20
2023-05-21T02:43:27.907Z,13.50
2023-05-21T02:44:34.033Z,15.30
2023-05-21T02:45:41.220Z,12.10
2023-05-21T02:46:47.273Z,13.20
2023-05-21T02:47:53.080Z,12.50
2023-05-21T02:48:59.365Z,12.70
2023-05-21T02:50:09.217Z,15.80
2023-05-21T02:51:16.450Z,14.40
2023-05-21T02:52:24.661Z,15.20
2023-05-21T02:53:32.871Z,13.40
2023-05-21T02:54:39.160Z,14.10
2023-05-21T02:55:45.015Z,14.80
2023-05-21T02:56:51.820Z,14.00
2023-05-21T02:57:57.834Z,12.90
2023-05-21T02:59:04.243Z,14.90
2023-05-21T03:00:13.569Z,13.20
2023-05-21T03:02:26.101Z,13.70
2023-05-21T03:03:32.961Z,12.40
2023-05-21T03:04:46.770Z,13.80
2023-05-21T03:05:54.223Z,12.50
2023-05-21T03:07:02.251Z,15.20
2023-05-21T03:08:08.588Z,11.10
2023-05-21T03:09:15.004Z,12.60
2023-05-21T03:10:21.474Z,13.30
2023-05-21T03:11:27.659Z,16.00
2023-05-21T03:12:34.222Z,12.50
2023-05-21T03:13:40.810Z,13.20
2023-05-21T03:14:46.752Z,11.00
2023-05-21T03:15:57.013Z,8.80
2023-05-21T03:17:06.516Z,10.10
2023-05-21T03:18:13.402Z,9.10
2023-05-21T03:19:21.083Z,12.30
2023-05-21T03:20:30.694Z,10.40
2023-05-21T03:21:36.972Z,10.30
2023-05-21T03:22:44.524Z,10.10
2023-05-21T03:23:52.094Z,11.90
2023-05-21T03:24:58.544Z,9.30
2023-05-21T03:26:04.801Z,12.60
2023-05-21T03:27:11.076Z,11.20
2023-05-21T03:28:19.565Z,12.60
2023-05-21T03:29:25.515Z,10.70
2023-05-21T03:30:31.933Z,12.40
2023-05-21T03:31:38.308Z,13.70
2023-05-21T03:32:45.456Z,11.00
2023-05-21T03:33:53.741Z,15.70
2023-05-21T03:35:00.220Z,12.80
2023-05-21T03:36:07.491Z,14.80
2023-05-21T03:37:14.616Z,11.50
2023-05-21T03:38:20.770Z,13.90
2023-05-21T03:39:29.166Z,12.50
2023-05-21T03:40:35.543Z,11.10
2023-05-21T03:41:42.481Z,12.50
2023-05-21T03:42:48.852Z,15.30
2023-05-21T03:43:54.740Z,15.90
2023-05-21T03:45:01.120Z,14.80
2023-05-21T03:46:07.488Z,15.60
2023-05-21T03:47:13.878Z,12.80
2023-05-21T03:48:20.003Z,13.30
2023-05-21T03:49:28.352Z,16.70
2023-05-21T03:50:34.556Z,15.30
2023-05-21T03:51:40.732Z,13.40
2023-05-21T03:52:46.852Z,15.20
2023-05-21T03:53:53.031Z,11.60
2023-05-21T03:54:59.906Z,14.70
2023-05-21T03:56:08.560Z,16.60
2023-05-21T03:57:14.965Z,14.90
2023-05-21T03:58:21.339Z,12.80
2023-05-21T03:59:27.446Z,15.50
2023-05-21T04:00:36.743Z,15.20
2023-05-21T04:01:42.984Z,13.40
2023-05-21T04:02:49.281Z,15.70
2023-05-21T04:03:56.003Z,14.70
2023-05-21T04:05:02.174Z,13.50
2023-05-21T04:06:13.107Z,16.60
2023-05-21T04:07:19.800Z,14.00
2023-05-21T04:08:26.296Z,13.10
2023-05-21T04:09:32.933Z,13.20
2023-05-21T04:10:40.658Z,14.30
2023-05-21T04:11:48.547Z,14.40
2023-05-21T04:12:54.712Z,14.30
2023-05-21T04:14:02.079Z,17.10
2023-05-21T04:15:11.114Z,15.30
2023-05-21T04:17:28.062Z,12.80
2023-05-21T04:18:34.494Z,15.30
2023-05-21T04:19:41.450Z,15.00
2023-05-21T04:20:47.872Z,13.60
2023-05-21T04:21:58.249Z,18.80
2023-05-21T04:23:03.974Z,17.00
2023-05-21T04:24:12.758Z,15.20
2023-05-21T04:25:20.428Z,12.20
2023-05-21T04:26:26.674Z,14.30
2023-05-21T04:27:34.969Z,15.10
2023-05-21T04:28:42.229Z,17.20
2023-05-21T04:29:50.712Z,13.60
2023-05-21T04:30:58.779Z,14.10
2023-05-21T04:32:06.365Z,11.20
2023-05-21T04:33:12.877Z,13.80
2023-05-21T04:34:19.031Z,13.30
2023-05-21T04:35:26.923Z,14.20
2023-05-21T04:36:34.194Z,14.60
2023-05-21T04:37:49.011Z,13.40
2023-05-21T04:38:55.724Z,15.10
2023-05-21T04:40:05.884Z,15.40
2023-05-21T04:41:15.100Z,17.10
2023-05-21T04:42:24.571Z,15.30
2023-05-21T04:43:33.140Z,15.40
2023-05-21T04:44:40.551Z,13.50
2023-05-21T04:45:47.419Z,14.00
2023-05-21T04:46:54.991Z,14.40
2023-05-21T04:48:01.564Z,11.70
2023-05-21T04:49:07.475Z,14.70
2023-05-21T04:50:14.679Z,14.30
2023-05-21T04:51:24.637Z,13.00
2023-05-21T04:52:32.388Z,12.20
2023-05-21T04:53:39.198Z,12.60
2023-05-21T04:54:46.932Z,12.50
2023-05-21T04:55:53.410Z,14.20
2023-05-21T04:56:59.354Z,15.00
2023-05-21T04:58:05.431Z,12.50
2023-05-21T04:59:11.900Z,15.00
2023-05-21T05:00:18.344Z,12.90
2023-05-21T05:01:27.476Z,14.50
2023-05-21T05:02:33.984Z,13.80
2023-05-21T05:03:40.162Z,12.10
2023-05-21T05:04:46.587Z,10.50
2023-05-21T05:05:52.860Z,12.00
2023-05-21T05:06:58.900Z,14.00
2023-05-21T05:08:07.425Z,13.10
2023-05-21T05:09:13.688Z,12.10
2023-05-21T05:10:20.467Z,12.60
2023-05-21T05:11:27.050Z,15.90
2023-05-21T05:12:32.736Z,17.30
2023-05-21T05:13:39.364Z,16.70
2023-05-21T05:14:45.972Z,12.10
2023-05-21T05:15:54.926Z,18.40
2023-05-21T05:17:03.005Z,14.10
2023-05-21T05:18:09.582Z,14.90
2023-05-21T05:19:16.442Z,12.90
2023-05-21T05:20:23.414Z,12.50
2023-05-21T05:21:29.808Z,14.10
2023-05-21T05:22:36.303Z,14.20
2023-05-21T05:23:42.015Z,12.70
2023-05-21T05:24:48.441Z,13.50
2023-05-21T05:25:54.403Z,14.60
2023-05-21T05:27:01.393Z,15.60
2023-05-21T05:28:07.552Z,13.50
2023-05-21T05:29:13.645Z,12.80
2023-05-21T05:30:21.012Z,14.20
2023-05-21T05:31:29.548Z,12.10
2023-05-21T05:32:36.862Z,15.50
2023-05-21T05:33:44.537Z,14.50
2023-05-21T05:34:50.302Z,13.40
2023-05-21T05:35:56.387Z,12.60
2023-05-21T05:37:03.001Z,14.80
2023-05-21T05:38:09.264Z,14.50
2023-05-21T05:39:15.492Z,13.70
2023-05-21T05:40:21.407Z,14.70
2023-05-21T05:41:27.634Z,12.40
2023-05-21T05:42:33.785Z,13.70
2023-05-21T05:43:39.874Z,14.00
2023-05-21T05:44:45.970Z,14.10
2023-05-21T05:45:52.429Z,12.50
2023-05-21T05:46:58.668Z,11.50
2023-05-21T05:48:07.433Z,13.60
2023-05-21T05:49:17.116Z,13.30
2023-05-21T05:50:23.364Z,14.60
2023-05-21T05:51:30.362Z,14.60
2023-05-21T05:52:36.703Z,15.60
2023-05-21T05:53:43.211Z,16.10
2023-05-21T05:54:49.469Z,13.90
2023-05-21T05:55:55.795Z,14.60
2023-05-21T05:57:01.779Z,15.90
2023-05-21T05:58:07.849Z,17.70
2023-05-21T05:59:14.241Z,13.60
2023-05-21T06:00:20.464Z,14.00
2023-05-21T06:01:27.139Z,14.40
2023-05-21T06:02:33.351Z,14.50
2023-05-21T06:03:41.169Z,13.20
2023-05-21T06:04:47.517Z,11.90
2023-05-21T06:05:53.679Z,12.10
2023-05-21T06:07:00.573Z,14.20
2023-05-21T06:08:08.832Z,12.30
2023-05-21T06:09:14.943Z,12.00
2023-05-21T06:10:20.879Z,10.80
2023-05-21T06:11:26.754Z,10.80
2023-05-21T06:12:32.767Z,13.20
2023-05-21T06:13:38.915Z,12.70
2023-05-21T06:14:46.930Z,10.70
2023-05-21T06:15:54.079Z,10.00
2023-05-21T06:17:01.594Z,10.70
2023-05-21T06:18:08.186Z,12.30
2023-05-21T06:19:14.310Z,11.10
2023-05-21T06:20:21.037Z,12.20
2023-05-21T06:21:27.946Z,11.70
2023-05-21T06:22:34.183Z,12.30
2023-05-21T06:23:40.936Z,11.70
2023-05-21T06:24:47.614Z,10.70
2023-05-21T06:25:53.813Z,7.70
2023-05-21T06:27:00.949Z,8.00
2023-05-21T06:28:07.134Z,8.70
2023-05-21T06:29:15.414Z,9.00
2023-05-21T06:30:21.650Z,8.70
2023-05-21T06:31:28.753Z,6.70
2023-05-21T06:32:35.133Z,6.20
2023-05-21T06:33:41.228Z,6.40
2023-05-21T06:34:47.345Z,5.80
2023-05-21T06:35:53.627Z,10.60
2023-05-21T06:36:59.305Z,8.10
2023-05-21T06:38:05.594Z,7.70
2023-05-21T06:39:11.829Z,7.10
2023-05-21T06:40:18.380Z,6.60
2023-05-21T06:41:24.731Z,6.90
2023-05-21T06:42:31.020Z,7.60
2023-05-21T06:43:37.953Z,7.20
2023-05-21T06:44:45.092Z,7.00
2023-05-21T06:45:52.327Z,10.10
2023-05-21T06:46:58.654Z,7.80
2023-05-21T06:48:06.852Z,6.00
2023-05-21T06:49:14.447Z,6.30
2023-05-21T06:50:24.144Z,6.00
2023-05-21T06:51:30.074Z,6.80
2023-05-21T06:52:36.291Z,7.40
2023-05-21T06:53:42.585Z,6.80
2023-05-21T06:54:48.985Z,6.80
2023-05-21T06:55:54.893Z,6.30
2023-05-21T06:57:01.741Z,6.30
2023-05-21T06:58:07.925Z,6.90
2023-05-21T06:59:15.019Z,6.00
2023-05-21T07:00:23.389Z,7.80
2023-05-21T07:01:31.267Z,8.20
2023-05-21T07:02:37.546Z,9.10
2023-05-21T07:03:44.307Z,6.20
2023-05-21T07:04:51.960Z,7.00
2023-05-21T07:05:58.334Z,6.10
2023-05-21T07:07:05.124Z,22.20
2023-05-21T07:08:14.520Z,9.90
2023-05-21T07:09:20.743Z,13.60
2023-05-21T07:10:27.360Z,7.10
2023-05-21T07:11:33.287Z,6.10
2023-05-21T07:12:41.477Z,6.70
2023-05-21T07:13:50.463Z,6.60
2023-05-21T07:14:58.158Z,8.40
2023-05-21T07:16:09.117Z,5.70
2023-05-21T07:17:15.778Z,8.70
2023-05-21T07:18:22.459Z,6.70
2023-05-21T07:19:28.732Z,8.10
2023-05-21T07:20:36.559Z,8.30
2023-05-21T07:21:42.963Z,7.20
2023-05-21T07:22:49.440Z,6.60
2023-05-21T07:23:55.376Z,7.00
2023-05-21T07:25:01.732Z,7.30
2023-05-21T07:26:08.750Z,7.40
2023-05-21T07:27:25.459Z,8.10
2023-05-21T07:28:32.676Z,6.10
2023-05-21T07:29:40.799Z,6.40
2023-05-21T07:30:47.313Z,10.30
2023-05-21T07:31:53.143Z,6.60
2023-05-21T07:32:59.235Z,7.70
2023-05-21T07:34:05.711Z,5.10
2023-05-21T07:35:12.081Z,6.30
2023-05-21T07:36:18.082Z,5.60
2023-05-21T07:37:27.689Z,7.20
2023-05-21T07:38:34.561Z,6.60
2023-05-21T07:39:40.608Z,8.20
2023-05-21T07:40:47.128Z,6.30
2023-05-21T07:41:53.810Z,6.80
2023-05-21T07:42:59.873Z,7.20
2023-05-21T07:44:07.230Z,6.10
2023-05-21T07:45:14.486Z,5.50
2023-05-21T07:46:20.574Z,7.00
2023-05-21T07:47:26.826Z,8.70
2023-05-21T07:48:35.314Z,7.20
2023-05-21T07:49:42.680Z,7.50
2023-05-21T07:50:50.379Z,5.60
2023-05-21T07:51:56.317Z,6.30
2023-05-21T07:53:02.723Z,6.20
2023-05-21T07:54:09.154Z,6.40
2023-05-21T07:55:16.115Z,5.40
2023-05-21T07:56:23.229Z,6.40
2023-05-21T07:57:30.695Z,6.80
2023-05-21T07:58:36.590Z,5.60
2023-05-21T07:59:42.557Z,7.90
2023-05-21T08:00:49.731Z,7.70
2023-05-21T08:01:56.130Z,5.00
2023-05-21T08:03:02.672Z,6.30
2023-05-21T08:04:09.082Z,6.10
2023-05-21T08:05:16.579Z,7.90
2023-05-21T08:06:25.430Z,6.80
2023-05-21T08:07:32.797Z,8.10
2023-05-21T08:08:39.076Z,6.90
2023-05-21T08:09:47.131Z,6.80
2023-05-21T08:10:53.214Z,6.80
2023-05-21T08:11:59.463Z,7.70
2023-05-21T08:13:06.556Z,6.70
2023-05-21T08:14:12.376Z,8.80
2023-05-21T08:15:19.456Z,8.20
2023-05-21T08:16:25.823Z,6.20
2023-05-21T08:17:32.385Z,5.90
2023-05-21T08:18:38.825Z,5.60
2023-05-21T08:19:45.069Z,7.50
2023-05-21T08:20:51.758Z,6.80
2023-05-21T08:21:57.599Z,6.10
2023-05-21T08:23:03.954Z,6.60
2023-05-21T08:24:10.407Z,6.80
2023-05-21T08:25:18.641Z,7.10
2023-05-21T08:26:25.717Z,5.70
2023-05-21T08:27:32.462Z,6.30
2023-05-21T08:28:39.805Z,5.30
2023-05-21T08:29:47.029Z,5.60
2023-05-21T08:30:53.362Z,6.60
2023-05-21T08:31:59.331Z,9.30
2023-05-21T08:33:05.879Z,9.40
2023-05-21T08:34:12.031Z,14.40
2023-05-21T08:35:17.980Z,10.70
2023-05-21T08:36:25.970Z,22.80
2023-05-21T08:37:32.995Z,11.50
2023-05-21T08:38:39.410Z,7.70
2023-05-21T08:39:45.561Z,7.90
2023-05-21T08:40:58.744Z,9.10
2023-05-21T08:42:25.652Z,7.50
2023-05-21T08:43:42.449Z,5.60
2023-05-21T08:44:53.502Z,5.40
2023-05-21T08:46:05.530Z,6.50
2023-05-21T08:47:19.238Z,4.70
2023-05-21T08:48:25.793Z,6.50
2023-05-21T08:49:35.518Z,6.70
2023-05-21T08:50:43.351Z,6.50
2023-05-21T08:51:51.474Z,5.90
2023-05-21T08:53:01.380Z,6.80
2023-05-21T08:54:10.901Z,5.70
2023-05-21T08:55:18.864Z,7.40
2023-05-21T08:56:32.662Z,6.30
2023-05-21T08:57:42.141Z,6.40
2023-05-21T08:58:52.600Z,6.00
2023-05-21T09:00:02.123Z,6.30
2023-05-21T09:01:10.005Z,6.90
2023-05-21T09:02:19.219Z,11.90
2023-05-21T09:03:33.802Z,5.20
2023-05-21T09:04:50.396Z,6.40
2023-05-21T09:06:01.567Z,7.50
2023-05-21T09:07:11.772Z,7.40
2023-05-21T09:08:25.407Z,10.00
2023-05-21T09:09:40.382Z,5.90
2023-05-21T09:11:03.857Z,6.90
2023-05-21T09:12:11.833Z,8.30
2023-05-21T09:13:22.296Z,8.20
2023-05-21T09:14:29.673Z,7.20
2023-05-21T09:15:36.898Z,7.70
2023-05-21T09:16:48.615Z,8.30
2023-05-21T09:17:56.124Z,6.50
2023-05-21T09:19:04.587Z,8.40
2023-05-21T09:20:19.298Z,6.30
2023-05-21T09:21:32.157Z,4.60
2023-05-21T09:22:48.670Z,6.80
2023-05-21T09:23:58.883Z,5.90
2023-05-21T09:25:12.407Z,7.80
2023-05-21T09:26:20.289Z,7.00
2023-05-21T09:27:26.591Z,9.20
2023-05-21T09:28:36.741Z,22.70
2023-05-21T09:29:43.932Z,7.80
2023-05-21T09:30:54.312Z,13.70
2023-05-21T09:32:05.994Z,21.30
2023-05-21T09:33:12.301Z,21.30
2023-05-21T09:34:18.232Z,12.50
2023-05-21T09:35:24.977Z,10.30
2023-05-21T09:36:31.164Z,7.00
2023-05-21T09:37:46.080Z,8.80
2023-05-21T09:39:01.969Z,12.40
2023-05-21T09:40:21.589Z,7.50
2023-05-21T09:41:36.239Z,7.20
2023-05-21T09:42:56.763Z,7.20
2023-05-21T09:44:04.512Z,7.00
2023-05-21T09:45:12.556Z,4.40
2023-05-21T09:46:28.442Z,6.70
2023-05-21T09:47:40.801Z,5.80
2023-05-21T09:48:47.279Z,4.30
2023-05-21T09:49:58.336Z,5.30
2023-05-21T09:51:12.830Z,5.10
2023-05-21T09:52:28.350Z,4.70
2023-05-21T09:53:35.907Z,5.80
2023-05-21T09:54:42.749Z,5.90
2023-05-21T09:55:54.378Z,6.40
2023-05-21T09:57:04.855Z,5.00
2023-05-21T09:58:13.662Z,5.70
2023-05-21T09:59:24.512Z,4.50
2023-05-21T10:00:31.961Z,5.50
2023-05-21T10:01:38.922Z,5.80
2023-05-21T10:02:47.965Z,7.30
2023-05-21T10:03:59.328Z,4.50
2023-05-21T10:05:09.166Z,6.10
2023-05-21T10:06:18.059Z,6.00
2023-05-21T10:07:26.672Z,6.60
2023-05-21T10:09:40.361Z,7.10
2023-05-21T10:10:49.942Z,4.80
2023-05-21T10:11:58.075Z,5.00
2023-05-21T10:13:09.677Z,7.60
2023-05-21T10:14:22.733Z,5.90
2023-05-21T10:15:34.606Z,7.00
2023-05-21T10:16:41.074Z,4.20
2023-05-21T10:17:50.323Z,5.50
2023-05-21T10:18:58.151Z,5.90
2023-05-21T10:20:07.666Z,4.70
2023-05-21T10:21:14.379Z,6.40
2023-05-21T10:22:20.938Z,5.80
2023-05-21T10:23:30.533Z,6.00
2023-05-21T10:24:37.972Z,6.60
2023-05-21T10:25:51.148Z,8.00
2023-05-21T10:26:58.940Z,7.20
2023-05-21T10:28:07.448Z,5.60
2023-05-21T10:29:19.558Z,6.30
2023-05-21T10:30:26.730Z,7.10
2023-05-21T10:31:36.645Z,6.90
2023-05-21T10:32:43.752Z,8.40
2023-05-21T10:33:53.152Z,8.20
2023-05-21T10:35:01.754Z,6.30
2023-05-21T10:36:10.532Z,5.80
2023-05-21T10:37:19.935Z,8.30
2023-05-21T10:38:28.180Z,5.40
2023-05-21T10:39:36.315Z,6.70
2023-05-21T10:40:42.734Z,6.90
2023-05-21T10:42:12.610Z,8.60
2023-05-21T10:43:46.316Z,7.10
2023-05-21T10:45:16.254Z,7.70
2023-05-21T10:46:50.461Z,8.50
2023-05-21T10:48:34.971Z,10.50
2023-05-21T10:50:01.914Z,8.20
2023-05-21T10:51:24.074Z,6.50
2023-05-21T10:52:48.787Z,6.90
2023-05-21T10:54:17.193Z,6.20
2023-05-21T10:55:47.961Z,5.50
2023-05-21T10:57:07.067Z,6.30
2023-05-21T10:58:39.704Z,6.50
2023-05-21T10:59:49.996Z,6.30
2023-05-21T11:00:57.711Z,4.50
2023-05-21T11:02:06.687Z,6.20
2023-05-21T11:03:16.255Z,7.80
2023-05-21T11:04:28.235Z,8.20
2023-05-21T11:05:54.763Z,5.10
2023-05-21T11:07:02.099Z,5.80
2023-05-21T11:08:23.621Z,8.40
2023-05-21T11:09:29.576Z,7.30
2023-05-21T11:10:53.564Z,6.20
2023-05-21T11:12:03.049Z,5.80
2023-05-21T11:13:16.936Z,5.90
2023-05-21T11:14:40.071Z,4.70
2023-05-21T11:16:08.148Z,8.50
2023-05-21T11:17:16.374Z,5.30
2023-05-21T11:18:22.612Z,6.90
2023-05-21T11:19:40.707Z,7.20
2023-05-21T11:20:52.704Z,7.00
2023-05-21T11:21:58.604Z,5.80
2023-05-21T11:23:06.057Z,7.00
2023-05-21T11:24:28.390Z,4.40
2023-05-21T11:25:35.392Z,3.80
2023-05-21T11:27:04.379Z,6.80
2023-05-21T11:28:10.891Z,6.40
2023-05-21T11:29:18.730Z,5.30
2023-05-21T11:30:25.073Z,5.00
2023-05-21T11:31:39.287Z,5.40
2023-05-21T11:33:22.649Z,5.20
2023-05-21T11:34:37.686Z,6.40
2023-05-21T11:37:31.502Z,6.90
2023-05-21T11:38:40.015Z,6.90
2023-05-21T11:39:47.368Z,5.00
2023-05-21T11:40:55.910Z,5.70
2023-05-21T11:43:11.592Z,5.00
2023-05-21T11:44:18.836Z,4.60
2023-05-21T11:45:28.647Z,5.20
2023-05-21T11:46:37.821Z,7.00
2023-05-21T11:48:54.096Z,4.40
2023-05-21T11:51:05.765Z,8.00
2023-05-21T11:52:14.509Z,3.90
2023-05-21T11:54:37.013Z,5.80
2023-05-21T11:55:47.729Z,3.70
2023-05-21T11:56:54.883Z,4.50
2023-05-21T11:58:01.760Z,4.70
2023-05-21T11:59:18.769Z,5.50
2023-05-21T12:00:25.441Z,8.20
2023-05-21T12:01:31.772Z,9.10
2023-05-21T12:02:38.234Z,6.30
2023-05-21T12:03:44.445Z,10.00
2023-05-21T12:04:51.639Z,12.60
2023-05-21T12:06:07.154Z,29.70
2023-05-21T12:07:15.538Z,13.00
2023-05-21T12:08:25.558Z,9.00
2023-05-21T12:09:34.094Z,7.60
2023-05-21T12:10:40.853Z,8.20
2023-05-21T12:11:47.657Z,7.80
2023-05-21T12:12:56.985Z,11.80
2023-05-21T12:14:03.699Z,10.30
2023-05-21T12:15:13.540Z,10.00
2023-05-21T12:16:21.070Z,8.30
2023-05-21T12:17:33.266Z,13.40
2023-05-21T12:18:43.312Z,4.50
2023-05-21T12:19:53.359Z,4.90
2023-05-21T12:20:59.685Z,4.00
2023-05-21T12:22:08.402Z,4.90
2023-05-21T12:23:26.282Z,4.00
2023-05-21T12:24:32.482Z,4.60
2023-05-21T12:25:46.488Z,5.80
2023-05-21T12:26:56.083Z,5.50
2023-05-21T12:28:06.522Z,5.20
2023-05-21T12:29:14.344Z,6.40
2023-05-21T12:30:21.369Z,4.50
2023-05-21T12:31:34.064Z,4.20
2023-05-21T12:32:45.635Z,6.00
2023-05-21T12:33:52.299Z,6.10
2023-05-21T12:34:58.882Z,6.30
2023-05-21T12:36:08.352Z,6.20
2023-05-21T12:37:18.246Z,6.60
2023-05-21T12:38:24.701Z,4.50
2023-05-21T12:39:31.509Z,5.20
2023-05-21T12:40:47.120Z,4.90
2023-05-21T12:41:57.354Z,3.40
2023-05-21T12:43:03.786Z,5.10
2023-05-21T12:44:11.633Z,5.20
2023-05-21T12:45:22.964Z,8.60
2023-05-21T12:46:29.739Z,7.00
2023-05-21T12:47:56.722Z,5.80
2023-05-21T12:49:04.642Z,9.50
2023-05-21T12:50:14.122Z,5.60
2023-05-21T12:51:21.644Z,7.30
2023-05-21T12:52:29.438Z,6.20
2023-05-21T12:53:42.650Z,6.60
2023-05-21T12:54:57.552Z,6.00
2023-05-21T12:57:21.226Z,4.60
2023-05-21T12:58:27.357Z,8.10
2023-05-21T12:59:45.922Z,7.50
2023-05-21T13:00:56.776Z,3.80
2023-05-21T13:02:05.592Z,6.40
2023-05-21T13:03:12.086Z,5.50
2023-05-21T13:04:21.816Z,6.60
2023-05-21T13:05:28.746Z,6.10
2023-05-21T13:06:43.733Z,5.50
2023-05-21T13:08:56.319Z,6.10
2023-05-21T13:10:04.054Z,5.60
2023-05-21T13:11:09.933Z,6.30
2023-05-21T13:12:16.202Z,4.60
2023-05-21T13:13:22.693Z,7.00
2023-05-21T13:14:29.049Z,6.80
2023-05-21T13:15:35.285Z,4.90
2023-05-21T13:16:41.782Z,5.20
2023-05-21T13:17:50.630Z,7.20
2023-05-21T13:19:00.247Z,5.20
2023-05-21T13:20:20.716Z,5.30
2023-05-21T13:21:26.965Z,5.50
2023-05-21T13:22:33.019Z,5.70
2023-05-21T13:23:39.790Z,6.90
2023-05-21T13:24:46.529Z,5.40
2023-05-21T13:25:52.758Z,4.10
2023-05-21T13:26:59.826Z,4.20
2023-05-21T13:28:13.517Z,3.90
2023-05-21T13:29:19.956Z,4.80
2023-05-21T13:30:26.745Z,4.40
2023-05-21T13:31:33.155Z,3.50
2023-05-21T13:32:39.989Z,4.40
2023-05-21T13:33:46.154Z,4.70
2023-05-21T13:34:52.205Z,3.10
2023-05-21T13:35:58.617Z,6.80
2023-05-21T13:37:04.626Z,4.90
2023-05-21T13:38:10.881Z,5.30
2023-05-21T13:39:17.956Z,4.40
2023-05-21T13:40:24.442Z,6.30
2023-05-21T13:41:30.908Z,3.70
2023-05-21T13:42:41.318Z,6.00
2023-05-21T13:43:47.530Z,4.80
2023-05-21T13:44:53.318Z,4.90
2023-05-21T13:46:01.282Z,3.20
2023-05-21T13:47:10.620Z,4.30
2023-05-21T13:48:16.986Z,3.80
2023-05-21T13:49:23.355Z,4.30
2023-05-21T13:50:29.935Z,4.30
2023-05-21T13:51:39.411Z,2.90
2023-05-21T13:52:48.690Z,4.80
2023-05-21T13:53:56.223Z,4.00
2023-05-21T13:55:16.129Z,4.40
2023-05-21T13:56:23.364Z,4.40
2023-05-21T13:57:31.377Z,4.80
2023-05-21T13:58:41.312Z,4.00
2023-05-21T13:59:48.041Z,4.70
2023-05-21T14:00:54.224Z,4.00
2023-05-21T14:02:01.522Z,3.40
2023-05-21T14:03:11.544Z,4.10
2023-05-21T14:04:19.237Z,4.00
2023-05-21T14:05:28.512Z,4.50
2023-05-21T14:06:35.247Z,5.10
2023-05-21T14:07:42.161Z,4.70
2023-05-21T14:08:48.592Z,4.80
2023-05-21T14:09:54.640Z,9.40
2023-05-21T14:11:05.207Z,6.20
2023-05-21T14:12:12.382Z,4.10
2023-05-21T14:13:20.071Z,4.70
2023-05-21T14:14:27.038Z,5.90
2023-05-21T14:15:32.957Z,4.30
2023-05-21T14:16:41.897Z,5.30
2023-05-21T14:17:49.094Z,4.20
2023-05-21T14:18:56.067Z,4.70
2023-05-21T14:20:02.523Z,5.00
2023-05-21T14:21:08.990Z,6.00
2023-05-21T14:22:15.446Z,5.20
2023-05-21T14:23:22.611Z,4.40
2023-05-21T14:24:29.550Z,4.00
2023-05-21T14:25:36.213Z,3.70
2023-05-21T14:26:47.724Z,4.40
2023-05-21T14:27:54.324Z,6.90
2023-05-21T14:29:00.896Z,5.00
2023-05-21T14:30:09.975Z,5.80
2023-05-21T14:31:19.648Z,4.10
2023-05-21T14:32:25.561Z,5.00
2023-05-21T14:33:34.205Z,5.10
2023-05-21T14:35:48.026Z,8.60
2023-05-21T14:36:54.376Z,5.10
2023-05-21T14:38:00.216Z,6.50
2023-05-21T14:39:06.700Z,4.60
2023-05-21T14:40:23.406Z,4.20
2023-05-21T14:41:30.183Z,5.60
2023-05-21T14:42:37.030Z,6.00
2023-05-21T14:43:43.185Z,3.60
2023-05-21T14:44:49.328Z,4.50
2023-05-21T14:45:55.605Z,8.00
2023-05-21T14:47:01.870Z,12.80
2023-05-21T14:48:09.247Z,6.30
2023-05-21T14:49:15.355Z,7.10
2023-05-21T14:50:22.131Z,5.20
2023-05-21T14:51:28.111Z,5.50
2023-05-21T14:52:34.581Z,5.50
2023-05-21T14:53:40.904Z,6.50
2023-05-21T14:54:46.628Z,5.20
2023-05-21T14:55:54.373Z,7.10
2023-05-21T14:57:00.569Z,4.30
2023-05-21T14:58:07.741Z,4.10
2023-05-21T14:59:14.473Z,9.20
2023-05-21T15:00:21.344Z,4.90
2023-05-21T15:01:27.240Z,3.60
2023-05-21T15:02:33.430Z,4.80
2023-05-21T15:03:40.040Z,5.70
2023-05-21T15:04:46.157Z,4.80
2023-05-21T15:05:52.778Z,4.00
2023-05-21T15:06:59.713Z,4.40
2023-05-21T15:08:08.509Z,4.40
2023-05-21T15:09:15.137Z,5.20
2023-05-21T15:10:21.672Z,5.60
2023-05-21T15:11:28.257Z,4.60
2023-05-21T15:12:34.899Z,3.50
2023-05-21T15:13:41.369Z,4.40